sensor_id;sensor_type;location;lat;lon;timestamp;P1;durP1;ratioP1;P2;durP2;ratioP2
76631;SDS011;65526;48.578;-4.520;2022-11-30T00:01:11;4.18;;;2.33;;
76631;SDS011;65526;48.578;-4.520;2022-11-30T00:03:41;7.75;;;3.22;;
76631;SDS011;65526;48.578;-4.520;2022-11-30T00:06:09;8.23;;;3.08;;
76631;SDS011;65526;48.578;-4.520;2022-11-30T00:11:07;8.32;;;3.33;;
76631;SDS011;65526;48.578;-4.520;2022-11-30T00:13:34;6.20;;;2.63;;
76631;SDS011;65526;48.578;-4.520;2022-11-30T00:16:01;13.43;;;3.25;;
76631;SDS011;65526;48.578;-4.520;2022-11-30T00:18:27;8.13;;;3.15;;
76631;SDS011;65526;48.578;-4.520;2022-11-30T00:20:53;5.15;;;2.97;;
76631;SDS011;65526;48.578;-4.520;2022-11-30T00:23:21;12.88;;;3.17;;
76631;SDS011;65526;48.578;-4.520;2022-11-30T00:25:48;5.97;;;2.78;;
76631;SDS011;65526;48.578;-4.520;2022-11-30T00:28:14;6.05;;;2.78;;
76631;SDS011;65526;48.578;-4.520;2022-11-30T00:30:41;5.45;;;2.83;;
76631;SDS011;65526;48.578;-4.520;2022-11-30T00:33:07;8.02;;;3.45;;
76631;SDS011;65526;48.578;-4.520;2022-11-30T00:35:33;6.93;;;3.10;;
76631;SDS011;65526;48.578;-4.520;2022-11-30T00:38:00;4.85;;;3.28;;
76631;SDS011;65526;48.578;-4.520;2022-11-30T00:40:27;6.32;;;2.75;;
76631;SDS011;65526;48.578;-4.520;2022-11-30T00:42:54;10.05;;;3.40;;
76631;SDS011;65526;48.578;-4.520;2022-11-30T00:45:21;8.98;;;3.50;;
76631;SDS011;65526;48.578;-4.520;2022-11-30T00:47:47;7.28;;;3.17;;
76631;SDS011;65526;48.578;-4.520;2022-11-30T00:50:13;5.38;;;3.05;;
76631;SDS011;65526;48.578;-4.520;2022-11-30T00:52:40;6.28;;;3.20;;
76631;SDS011;65526;48.578;-4.520;2022-11-30T00:55:06;8.70;;;3.08;;
76631;SDS011;65526;48.578;-4.520;2022-11-30T00:57:33;8.18;;;2.78;;
76631;SDS011;65526;48.578;-4.520;2022-11-30T00:59:59;8.80;;;3.22;;
76631;SDS011;65526;48.578;-4.520;2022-11-30T01:02:26;13.15;;;3.30;;
76631;SDS011;65526;48.578;-4.520;2022-11-30T01:04:52;6.07;;;2.80;;
76631;SDS011;65526;48.578;-4.520;2022-11-30T01:07:18;5.90;;;2.88;;
76631;SDS011;65526;48.578;-4.520;2022-11-30T01:09:45;10.82;;;2.75;;
76631;SDS011;65526;48.578;-4.520;2022-11-30T01:12:11;9.02;;;3.30;;
76631;SDS011;65526;48.578;-4.520;2022-11-30T01:14:37;4.30;;;2.85;;
76631;SDS011;65526;48.578;-4.520;2022-11-30T01:17:04;6.57;;;2.88;;
76631;SDS011;65526;48.578;-4.520;2022-11-30T01:19:30;9.13;;;3.92;;
76631;SDS011;65526;48.578;-4.520;2022-11-30T01:21:57;8.05;;;2.83;;
76631;SDS011;65526;48.578;-4.520;2022-11-30T01:24:23;5.03;;;2.40;;
76631;SDS011;65526;48.578;-4.520;2022-11-30T01:26:50;8.27;;;2.45;;
76631;SDS011;65526;48.578;-4.520;2022-11-30T01:29:16;4.43;;;2.50;;
76631;SDS011;65526;48.578;-4.520;2022-11-30T01:31:42;4.28;;;2.90;;
76631;SDS011;65526;48.578;-4.520;2022-11-30T01:34:09;9.32;;;2.70;;
76631;SDS011;65526;48.578;-4.520;2022-11-30T01:36:35;5.82;;;2.70;;
76631;SDS011;65526;48.578;-4.520;2022-11-30T01:39:06;10.82;;;2.45;;
76631;SDS011;65526;48.578;-4.520;2022-11-30T01:41:36;8.93;;;2.60;;
76631;SDS011;65526;48.578;-4.520;2022-11-30T01:46:41;6.30;;;2.63;;
76631;SDS011;65526;48.578;-4.520;2022-11-30T01:49:22;4.53;;;1.95;;
76631;SDS011;65526;48.578;-4.520;2022-11-30T01:54:28;5.20;;;2.42;;
76631;SDS011;65526;48.578;-4.520;2022-11-30T01:57:08;6.72;;;2.10;;
76631;SDS011;65526;48.578;-4.520;2022-11-30T02:02:06;10.95;;;2.30;;
76631;SDS011;65526;48.578;-4.520;2022-11-30T02:04:36;6.85;;;2.10;;
76631;SDS011;65526;48.578;-4.520;2022-11-30T02:07:04;3.88;;;1.58;;
76631;SDS011;65526;48.578;-4.520;2022-11-30T02:09:34;6.72;;;2.10;;
76631;SDS011;65526;48.578;-4.520;2022-11-30T02:12:07;5.72;;;1.50;;
76631;SDS011;65526;48.578;-4.520;2022-11-30T02:14:47;6.25;;;2.03;;
76631;SDS011;65526;48.578;-4.520;2022-11-30T02:30:21;2.78;;;1.85;;
76631;SDS011;65526;48.578;-4.520;2022-11-30T02:35:26;4.50;;;1.35;;
76631;SDS011;65526;48.578;-4.520;2022-11-30T02:37:58;3.08;;;1.50;;
76631;SDS011;65526;48.578;-4.520;2022-11-30T02:40:28;4.32;;;1.73;;
76631;SDS011;65526;48.578;-4.520;2022-11-30T02:42:55;6.55;;;2.10;;
76631;SDS011;65526;48.578;-4.520;2022-11-30T02:45:33;4.20;;;1.45;;
76631;SDS011;65526;48.578;-4.520;2022-11-30T02:48:25;3.25;;;1.50;;
76631;SDS011;65526;48.578;-4.520;2022-11-30T02:50:58;5.53;;;1.27;;
76631;SDS011;65526;48.578;-4.520;2022-11-30T02:53:27;2.90;;;1.10;;
76631;SDS011;65526;48.578;-4.520;2022-11-30T02:55:54;5.30;;;1.40;;
76631;SDS011;65526;48.578;-4.520;2022-11-30T02:58:21;2.13;;;1.40;;
76631;SDS011;65526;48.578;-4.520;2022-11-30T03:00:47;5.10;;;1.00;;
76631;SDS011;65526;48.578;-4.520;2022-11-30T03:03:14;6.82;;;1.50;;
76631;SDS011;65526;48.578;-4.520;2022-11-30T03:05:41;5.72;;;1.08;;
76631;SDS011;65526;48.578;-4.520;2022-11-30T03:08:07;1.67;;;1.13;;
76631;SDS011;65526;48.578;-4.520;2022-11-30T03:10:33;5.88;;;1.23;;
76631;SDS011;65526;48.578;-4.520;2022-11-30T03:13:00;3.72;;;1.33;;
76631;SDS011;65526;48.578;-4.520;2022-11-30T03:15:26;5.25;;;1.15;;
76631;SDS011;65526;48.578;-4.520;2022-11-30T03:17:53;3.45;;;1.05;;
76631;SDS011;65526;48.578;-4.520;2022-11-30T03:20:19;4.00;;;1.15;;
76631;SDS011;65526;48.578;-4.520;2022-11-30T03:22:46;2.10;;;1.50;;
76631;SDS011;65526;48.578;-4.520;2022-11-30T03:25:12;4.20;;;1.02;;
76631;SDS011;65526;48.578;-4.520;2022-11-30T03:27:38;4.68;;;1.27;;
76631;SDS011;65526;48.578;-4.520;2022-11-30T03:30:05;5.00;;;1.40;;
76631;SDS011;65526;48.578;-4.520;2022-11-30T03:32:32;5.28;;;1.00;;
76631;SDS011;65526;48.578;-4.520;2022-11-30T03:34:59;5.15;;;1.48;;
76631;SDS011;65526;48.578;-4.520;2022-11-30T03:37:25;3.55;;;1.60;;
76631;SDS011;65526;48.578;-4.520;2022-11-30T03:39:51;5.03;;;1.20;;
76631;SDS011;65526;48.578;-4.520;2022-11-30T03:42:18;4.68;;;1.58;;
76631;SDS011;65526;48.578;-4.520;2022-11-30T03:44:44;2.75;;;1.10;;
76631;SDS011;65526;48.578;-4.520;2022-11-30T03:47:11;4.55;;;1.48;;
76631;SDS011;65526;48.578;-4.520;2022-11-30T03:49:37;3.53;;;1.50;;
76631;SDS011;65526;48.578;-4.520;2022-11-30T03:52:03;4.68;;;1.17;;
76631;SDS011;65526;48.578;-4.520;2022-11-30T03:54:30;1.90;;;0.90;;
76631;SDS011;65526;48.578;-4.520;2022-11-30T03:56:56;5.70;;;1.35;;
76631;SDS011;65526;48.578;-4.520;2022-11-30T03:59:23;3.50;;;1.20;;
76631;SDS011;65526;48.578;-4.520;2022-11-30T04:01:49;2.72;;;1.20;;
76631;SDS011;65526;48.578;-4.520;2022-11-30T04:04:15;8.63;;;1.48;;
76631;SDS011;65526;48.578;-4.520;2022-11-30T04:06:42;5.15;;;1.30;;
76631;SDS011;65526;48.578;-4.520;2022-11-30T04:09:08;3.58;;;1.10;;
76631;SDS011;65526;48.578;-4.520;2022-11-30T04:11:35;2.53;;;1.20;;
76631;SDS011;65526;48.578;-4.520;2022-11-30T04:14:02;1.00;;;0.80;;
76631;SDS011;65526;48.578;-4.520;2022-11-30T04:16:28;4.20;;;1.25;;
76631;SDS011;65526;48.578;-4.520;2022-11-30T04:18:55;4.18;;;1.13;;
76631;SDS011;65526;48.578;-4.520;2022-11-30T04:21:21;3.35;;;1.05;;
76631;SDS011;65526;48.578;-4.520;2022-11-30T04:23:47;6.32;;;0.95;;
76631;SDS011;65526;48.578;-4.520;2022-11-30T04:26:14;5.13;;;0.98;;
76631;SDS011;65526;48.578;-4.520;2022-11-30T04:28:42;5.75;;;1.40;;
76631;SDS011;65526;48.578;-4.520;2022-11-30T04:31:09;2.78;;;0.98;;
76631;SDS011;65526;48.578;-4.520;2022-11-30T04:33:35;4.00;;;1.00;;
76631;SDS011;65526;48.578;-4.520;2022-11-30T04:36:03;1.85;;;1.67;;
76631;SDS011;65526;48.578;-4.520;2022-11-30T04:38:31;3.35;;;0.90;;
76631;SDS011;65526;48.578;-4.520;2022-11-30T04:40:58;2.63;;;1.17;;
76631;SDS011;65526;48.578;-4.520;2022-11-30T04:43:25;2.30;;;0.80;;
76631;SDS011;65526;48.578;-4.520;2022-11-30T04:45:52;4.05;;;0.85;;
76631;SDS011;65526;48.578;-4.520;2022-11-30T04:48:18;2.40;;;1.20;;
76631;SDS011;65526;48.578;-4.520;2022-11-30T04:50:45;4.35;;;1.67;;
76631;SDS011;65526;48.578;-4.520;2022-11-30T04:53:11;3.58;;;0.95;;
76631;SDS011;65526;48.578;-4.520;2022-11-30T04:55:38;2.67;;;1.10;;
76631;SDS011;65526;48.578;-4.520;2022-11-30T04:58:05;2.40;;;0.85;;
76631;SDS011;65526;48.578;-4.520;2022-11-30T05:00:32;3.55;;;0.80;;
76631;SDS011;65526;48.578;-4.520;2022-11-30T05:02:59;3.00;;;1.13;;
76631;SDS011;65526;48.578;-4.520;2022-11-30T05:05:25;5.82;;;1.02;;
76631;SDS011;65526;48.578;-4.520;2022-11-30T05:07:56;4.97;;;0.88;;
76631;SDS011;65526;48.578;-4.520;2022-11-30T05:10:23;3.28;;;1.10;;
76631;SDS011;65526;48.578;-4.520;2022-11-30T05:12:50;1.70;;;1.17;;
76631;SDS011;65526;48.578;-4.520;2022-11-30T05:15:17;4.15;;;0.90;;
76631;SDS011;65526;48.578;-4.520;2022-11-30T05:17:44;2.25;;;1.10;;
76631;SDS011;65526;48.578;-4.520;2022-11-30T05:20:10;2.40;;;0.98;;
76631;SDS011;65526;48.578;-4.520;2022-11-30T05:22:37;2.53;;;1.10;;
76631;SDS011;65526;48.578;-4.520;2022-11-30T05:25:03;3.90;;;1.10;;
76631;SDS011;65526;48.578;-4.520;2022-11-30T05:27:30;2.53;;;1.08;;
76631;SDS011;65526;48.578;-4.520;2022-11-30T05:29:57;3.95;;;1.25;;
76631;SDS011;65526;48.578;-4.520;2022-11-30T05:32:23;1.80;;;0.90;;
76631;SDS011;65526;48.578;-4.520;2022-11-30T05:34:49;3.25;;;1.15;;
76631;SDS011;65526;48.578;-4.520;2022-11-30T05:37:16;3.45;;;0.90;;
76631;SDS011;65526;48.578;-4.520;2022-11-30T05:39:42;3.88;;;1.08;;
76631;SDS011;65526;48.578;-4.520;2022-11-30T05:42:08;1.75;;;1.00;;
76631;SDS011;65526;48.578;-4.520;2022-11-30T05:44:35;3.65;;;1.40;;
76631;SDS011;65526;48.578;-4.520;2022-11-30T05:47:01;3.78;;;1.48;;
76631;SDS011;65526;48.578;-4.520;2022-11-30T05:49:28;2.33;;;1.67;;
76631;SDS011;65526;48.578;-4.520;2022-11-30T05:51:54;1.63;;;1.42;;
76631;SDS011;65526;48.578;-4.520;2022-11-30T05:54:20;3.78;;;1.10;;
76631;SDS011;65526;48.578;-4.520;2022-11-30T05:56:47;1.50;;;0.90;;
76631;SDS011;65526;48.578;-4.520;2022-11-30T05:59:13;7.55;;;1.33;;
76631;SDS011;65526;48.578;-4.520;2022-11-30T06:01:40;2.28;;;1.10;;
76631;SDS011;65526;48.578;-4.520;2022-11-30T06:04:06;3.10;;;1.40;;
76631;SDS011;65526;48.578;-4.520;2022-11-30T06:06:32;2.25;;;1.10;;
76631;SDS011;65526;48.578;-4.520;2022-11-30T06:08:59;2.38;;;1.30;;
76631;SDS011;65526;48.578;-4.520;2022-11-30T06:11:25;1.98;;;1.08;;
76631;SDS011;65526;48.578;-4.520;2022-11-30T06:13:51;4.60;;;1.42;;
76631;SDS011;65526;48.578;-4.520;2022-11-30T06:16:18;1.83;;;1.38;;
76631;SDS011;65526;48.578;-4.520;2022-11-30T06:18:44;1.95;;;0.95;;
76631;SDS011;65526;48.578;-4.520;2022-11-30T06:21:11;2.92;;;1.10;;
76631;SDS011;65526;48.578;-4.520;2022-11-30T06:23:37;1.75;;;1.15;;
76631;SDS011;65526;48.578;-4.520;2022-11-30T06:26:04;3.40;;;1.10;;
76631;SDS011;65526;48.578;-4.520;2022-11-30T06:28:32;3.90;;;1.25;;
76631;SDS011;65526;48.578;-4.520;2022-11-30T06:30:59;2.65;;;1.25;;
76631;SDS011;65526;48.578;-4.520;2022-11-30T06:33:26;2.33;;;1.23;;
76631;SDS011;65526;48.578;-4.520;2022-11-30T06:35:53;3.95;;;1.20;;
76631;SDS011;65526;48.578;-4.520;2022-11-30T06:38:20;2.33;;;1.17;;
76631;SDS011;65526;48.578;-4.520;2022-11-30T06:40:47;4.65;;;1.17;;
76631;SDS011;65526;48.578;-4.520;2022-11-30T06:43:14;3.15;;;1.63;;
76631;SDS011;65526;48.578;-4.520;2022-11-30T06:45:43;4.90;;;2.55;;
76631;SDS011;65526;48.578;-4.520;2022-11-30T06:48:11;3.20;;;2.08;;
76631;SDS011;65526;48.578;-4.520;2022-11-30T06:50:38;2.55;;;1.70;;
76631;SDS011;65526;48.578;-4.520;2022-11-30T06:53:05;2.58;;;1.65;;
76631;SDS011;65526;48.578;-4.520;2022-11-30T06:55:32;2.63;;;1.35;;
76631;SDS011;65526;48.578;-4.520;2022-11-30T06:58:09;5.40;;;2.22;;
76631;SDS011;65526;48.578;-4.520;2022-11-30T07:00:36;2.28;;;0.80;;
76631;SDS011;65526;48.578;-4.520;2022-11-30T07:03:03;1.67;;;1.20;;
76631;SDS011;65526;48.578;-4.520;2022-11-30T07:05:34;2.45;;;1.17;;
76631;SDS011;65526;48.578;-4.520;2022-11-30T07:08:09;1.55;;;0.90;;
76631;SDS011;65526;48.578;-4.520;2022-11-30T07:10:39;2.45;;;0.85;;
76631;SDS011;65526;48.578;-4.520;2022-11-30T07:13:10;4.75;;;1.27;;
76631;SDS011;65526;48.578;-4.520;2022-11-30T07:15:40;1.83;;;1.10;;
76631;SDS011;65526;48.578;-4.520;2022-11-30T07:18:08;1.67;;;0.98;;
76631;SDS011;65526;48.578;-4.520;2022-11-30T07:20:35;2.25;;;1.38;;
76631;SDS011;65526;48.578;-4.520;2022-11-30T07:23:02;3.45;;;1.20;;
76631;SDS011;65526;48.578;-4.520;2022-11-30T07:25:48;3.60;;;1.55;;
76631;SDS011;65526;48.578;-4.520;2022-11-30T07:28:34;4.38;;;1.50;;
76631;SDS011;65526;48.578;-4.520;2022-11-30T07:31:14;2.78;;;1.08;;
76631;SDS011;65526;48.578;-4.520;2022-11-30T07:33:46;2.75;;;1.25;;
76631;SDS011;65526;48.578;-4.520;2022-11-30T07:36:14;1.35;;;1.08;;
76631;SDS011;65526;48.578;-4.520;2022-11-30T07:38:42;2.63;;;1.27;;
76631;SDS011;65526;48.578;-4.520;2022-11-30T07:41:08;2.03;;;1.30;;
76631;SDS011;65526;48.578;-4.520;2022-11-30T07:43:35;1.40;;;1.08;;
76631;SDS011;65526;48.578;-4.520;2022-11-30T07:46:02;3.40;;;1.25;;
76631;SDS011;65526;48.578;-4.520;2022-11-30T07:48:29;11.23;;;1.30;;
76631;SDS011;65526;48.578;-4.520;2022-11-30T07:51:02;3.53;;;1.35;;
76631;SDS011;65526;48.578;-4.520;2022-11-30T07:53:30;2.03;;;1.50;;
76631;SDS011;65526;48.578;-4.520;2022-11-30T07:56:04;2.78;;;1.52;;
76631;SDS011;65526;48.578;-4.520;2022-11-30T07:58:32;4.15;;;1.40;;
76631;SDS011;65526;48.578;-4.520;2022-11-30T08:03:33;4.85;;;2.05;;
76631;SDS011;65526;48.578;-4.520;2022-11-30T08:06:10;3.58;;;1.90;;
76631;SDS011;65526;48.578;-4.520;2022-11-30T08:08:42;4.78;;;2.17;;
76631;SDS011;65526;48.578;-4.520;2022-11-30T08:11:10;4.10;;;1.95;;
76631;SDS011;65526;48.578;-4.520;2022-11-30T08:13:38;3.80;;;2.67;;
76631;SDS011;65526;48.578;-4.520;2022-11-30T08:16:07;5.20;;;3.25;;
76631;SDS011;65526;48.578;-4.520;2022-11-30T08:18:39;9.65;;;6.13;;
76631;SDS011;65526;48.578;-4.520;2022-11-30T08:21:06;25.75;;;16.17;;
76631;SDS011;65526;48.578;-4.520;2022-11-30T08:23:35;26.15;;;17.02;;
76631;SDS011;65526;48.578;-4.520;2022-11-30T08:26:11;33.78;;;22.95;;
76631;SDS011;65526;48.578;-4.520;2022-11-30T08:28:39;35.83;;;24.27;;
76631;SDS011;65526;48.578;-4.520;2022-11-30T08:31:08;31.98;;;22.65;;
76631;SDS011;65526;48.578;-4.520;2022-11-30T08:33:36;25.45;;;17.10;;
76631;SDS011;65526;48.578;-4.520;2022-11-30T08:38:39;12.88;;;9.45;;
76631;SDS011;65526;48.578;-4.520;2022-11-30T08:41:06;10.05;;;6.80;;
76631;SDS011;65526;48.578;-4.520;2022-11-30T08:43:34;7.25;;;3.97;;
76631;SDS011;65526;48.578;-4.520;2022-11-30T08:46:02;4.80;;;2.17;;
76631;SDS011;65526;48.578;-4.520;2022-11-30T08:48:30;4.72;;;2.40;;
76631;SDS011;65526;48.578;-4.520;2022-11-30T08:51:03;4.93;;;1.55;;
76631;SDS011;65526;48.578;-4.520;2022-11-30T08:53:31;3.67;;;1.45;;
76631;SDS011;65526;48.578;-4.520;2022-11-30T08:56:03;4.30;;;1.60;;
76631;SDS011;65526;48.578;-4.520;2022-11-30T08:58:33;2.38;;;1.67;;
76631;SDS011;65526;48.578;-4.520;2022-11-30T09:01:17;2.20;;;1.63;;
76631;SDS011;65526;48.578;-4.520;2022-11-30T09:03:46;2.70;;;1.42;;
76631;SDS011;65526;48.578;-4.520;2022-11-30T09:06:15;2.25;;;1.48;;
76631;SDS011;65526;48.578;-4.520;2022-11-30T09:08:47;9.23;;;5.43;;
76631;SDS011;65526;48.578;-4.520;2022-11-30T09:11:16;19.13;;;9.57;;
76631;SDS011;65526;48.578;-4.520;2022-11-30T09:13:45;33.15;;;16.23;;
76631;SDS011;65526;48.578;-4.520;2022-11-30T09:16:12;32.17;;;16.77;;
76631;SDS011;65526;48.578;-4.520;2022-11-30T09:18:40;28.15;;;14.82;;
76631;SDS011;65526;48.578;-4.520;2022-11-30T09:21:08;14.18;;;8.38;;
76631;SDS011;65526;48.578;-4.520;2022-11-30T09:23:36;9.95;;;4.80;;
76631;SDS011;65526;48.578;-4.520;2022-11-30T09:26:04;6.57;;;2.70;;
76631;SDS011;65526;48.578;-4.520;2022-11-30T09:28:34;6.68;;;2.53;;
76631;SDS011;65526;48.578;-4.520;2022-11-30T09:31:02;7.93;;;2.30;;
76631;SDS011;65526;48.578;-4.520;2022-11-30T09:33:47;2.53;;;1.98;;
76631;SDS011;65526;48.578;-4.520;2022-11-30T09:36:15;3.75;;;1.80;;
76631;SDS011;65526;48.578;-4.520;2022-11-30T09:38:43;4.57;;;1.85;;
76631;SDS011;65526;48.578;-4.520;2022-11-30T09:41:18;2.15;;;1.70;;
76631;SDS011;65526;48.578;-4.520;2022-11-30T09:46:38;2.58;;;2.30;;
76631;SDS011;65526;48.578;-4.520;2022-11-30T09:51:54;3.63;;;1.70;;
76631;SDS011;65526;48.578;-4.520;2022-11-30T09:59:52;2.80;;;1.90;;
76631;SDS011;65526;48.578;-4.520;2022-11-30T10:02:27;1.52;;;1.42;;
76631;SDS011;65526;48.578;-4.520;2022-11-30T10:04:55;4.07;;;1.58;;
76631;SDS011;65526;48.578;-4.520;2022-11-30T10:07:42;4.80;;;1.80;;
76631;SDS011;65526;48.578;-4.520;2022-11-30T10:10:28;2.25;;;1.60;;
76631;SDS011;65526;48.578;-4.520;2022-11-30T10:20:58;3.53;;;1.80;;
76631;SDS011;65526;48.578;-4.520;2022-11-30T10:26:32;2.75;;;1.50;;
76631;SDS011;65526;48.578;-4.520;2022-11-30T10:29:11;5.20;;;1.63;;
76631;SDS011;65526;48.578;-4.520;2022-11-30T10:31:43;4.30;;;1.50;;
76631;SDS011;65526;48.578;-4.520;2022-11-30T10:34:21;4.90;;;1.92;;
76631;SDS011;65526;48.578;-4.520;2022-11-30T10:39:31;2.10;;;1.48;;
76631;SDS011;65526;48.578;-4.520;2022-11-30T10:44:39;6.47;;;1.48;;
76631;SDS011;65526;48.578;-4.520;2022-11-30T10:47:13;4.03;;;1.60;;
76631;SDS011;65526;48.578;-4.520;2022-11-30T10:49:47;3.72;;;1.33;;
76631;SDS011;65526;48.578;-4.520;2022-11-30T10:52:17;2.33;;;1.60;;
76631;SDS011;65526;48.578;-4.520;2022-11-30T10:54:47;4.60;;;1.80;;
76631;SDS011;65526;48.578;-4.520;2022-11-30T10:57:17;2.45;;;1.40;;
76631;SDS011;65526;48.578;-4.520;2022-11-30T10:59:44;4.68;;;1.77;;
76631;SDS011;65526;48.578;-4.520;2022-11-30T11:08:02;2.03;;;1.58;;
76631;SDS011;65526;48.578;-4.520;2022-11-30T11:10:45;3.92;;;2.50;;
76631;SDS011;65526;48.578;-4.520;2022-11-30T11:13:18;3.72;;;1.88;;
76631;SDS011;65526;48.578;-4.520;2022-11-30T11:16:01;4.18;;;2.10;;
76631;SDS011;65526;48.578;-4.520;2022-11-30T11:18:29;3.97;;;2.05;;
76631;SDS011;65526;48.578;-4.520;2022-11-30T11:21:01;2.58;;;2.05;;
76631;SDS011;65526;48.578;-4.520;2022-11-30T11:26:06;3.83;;;1.85;;
76631;SDS011;65526;48.578;-4.520;2022-11-30T11:28:43;5.63;;;1.98;;
76631;SDS011;65526;48.578;-4.520;2022-11-30T11:31:15;4.10;;;2.17;;
76631;SDS011;65526;48.578;-4.520;2022-11-30T11:33:52;3.30;;;2.15;;
76631;SDS011;65526;48.578;-4.520;2022-11-30T11:38:56;3.35;;;2.17;;
76631;SDS011;65526;48.578;-4.520;2022-11-30T11:41:27;3.92;;;2.03;;
76631;SDS011;65526;48.578;-4.520;2022-11-30T11:44:30;2.70;;;2.05;;
76631;SDS011;65526;48.578;-4.520;2022-11-30T11:49:25;2.70;;;1.80;;
76631;SDS011;65526;48.578;-4.520;2022-11-30T11:54:39;3.65;;;1.70;;
76631;SDS011;65526;48.578;-4.520;2022-11-30T11:57:11;5.18;;;2.00;;
76631;SDS011;65526;48.578;-4.520;2022-11-30T11:59:41;3.22;;;1.67;;
76631;SDS011;65526;48.578;-4.520;2022-11-30T12:05:32;2.22;;;1.50;;
76631;SDS011;65526;48.578;-4.520;2022-11-30T12:11:36;1.50;;;1.40;;
76631;SDS011;65526;48.578;-4.520;2022-11-30T12:14:16;2.97;;;1.63;;
76631;SDS011;65526;48.578;-4.520;2022-11-30T12:19:20;4.20;;;1.30;;
76631;SDS011;65526;48.578;-4.520;2022-11-30T12:21:54;2.40;;;1.92;;
76631;SDS011;65526;48.578;-4.520;2022-11-30T12:24:46;6.90;;;1.20;;
76631;SDS011;65526;48.578;-4.520;2022-11-30T12:38:57;2.05;;;0.90;;
76631;SDS011;65526;48.578;-4.520;2022-11-30T12:53:41;3.78;;;1.35;;
76631;SDS011;65526;48.578;-4.520;2022-11-30T13:04:36;1.48;;;1.10;;
76631;SDS011;65526;48.578;-4.520;2022-11-30T13:10:02;5.32;;;1.25;;
76631;SDS011;65526;48.578;-4.520;2022-11-30T13:12:43;2.03;;;1.15;;
76631;SDS011;65526;48.578;-4.520;2022-11-30T13:15:16;1.33;;;1.10;;
76631;SDS011;65526;48.578;-4.520;2022-11-30T13:17:45;5.53;;;1.60;;
76631;SDS011;65526;48.578;-4.520;2022-11-30T13:25:55;2.25;;;1.13;;
76631;SDS011;65526;48.578;-4.520;2022-11-30T13:31:37;3.13;;;1.05;;
76631;SDS011;65526;48.578;-4.520;2022-11-30T13:37:10;4.07;;;1.77;;
76631;SDS011;65526;48.578;-4.520;2022-11-30T13:39:47;1.63;;;1.02;;
76631;SDS011;65526;48.578;-4.520;2022-11-30T13:42:34;2.10;;;0.85;;
76631;SDS011;65526;48.578;-4.520;2022-11-30T13:45:25;2.30;;;0.90;;
76631;SDS011;65526;48.578;-4.520;2022-11-30T13:47:58;2.97;;;1.08;;
76631;SDS011;65526;48.578;-4.520;2022-11-30T13:50:41;4.35;;;1.60;;
76631;SDS011;65526;48.578;-4.520;2022-11-30T13:53:19;4.53;;;2.40;;
76631;SDS011;65526;48.578;-4.520;2022-11-30T13:55:52;5.65;;;2.90;;
76631;SDS011;65526;48.578;-4.520;2022-11-30T13:58:24;5.05;;;2.90;;
76631;SDS011;65526;48.578;-4.520;2022-11-30T14:09:12;3.35;;;2.92;;
76631;SDS011;65526;48.578;-4.520;2022-11-30T14:11:56;5.30;;;3.53;;
76631;SDS011;65526;48.578;-4.520;2022-11-30T14:14:39;6.22;;;4.13;;
76631;SDS011;65526;48.578;-4.520;2022-11-30T14:17:09;5.80;;;4.28;;
76631;SDS011;65526;48.578;-4.520;2022-11-30T14:19:41;11.13;;;4.63;;
76631;SDS011;65526;48.578;-4.520;2022-11-30T14:22:09;8.55;;;5.05;;
76631;SDS011;65526;48.578;-4.520;2022-11-30T14:24:37;6.95;;;4.20;;
76631;SDS011;65526;48.578;-4.520;2022-11-30T14:27:04;8.63;;;3.72;;
76631;SDS011;65526;48.578;-4.520;2022-11-30T14:29:32;7.15;;;4.22;;
76631;SDS011;65526;48.578;-4.520;2022-11-30T14:34:53;6.07;;;4.35;;
76631;SDS011;65526;48.578;-4.520;2022-11-30T14:37:29;11.02;;;5.03;;
76631;SDS011;65526;48.578;-4.520;2022-11-30T14:40:00;7.25;;;4.53;;
76631;SDS011;65526;48.578;-4.520;2022-11-30T14:42:29;6.63;;;4.30;;
76631;SDS011;65526;48.578;-4.520;2022-11-30T14:44:57;8.88;;;4.60;;
76631;SDS011;65526;48.578;-4.520;2022-11-30T14:49:53;9.10;;;4.55;;
76631;SDS011;65526;48.578;-4.520;2022-11-30T14:58:04;6.53;;;4.75;;
76631;SDS011;65526;48.578;-4.520;2022-11-30T15:01:02;5.95;;;4.57;;
76631;SDS011;65526;48.578;-4.520;2022-11-30T15:03:42;8.15;;;4.57;;
76631;SDS011;65526;48.578;-4.520;2022-11-30T15:06:14;7.75;;;4.43;;
76631;SDS011;65526;48.578;-4.520;2022-11-30T15:08:47;12.05;;;4.82;;
76631;SDS011;65526;48.578;-4.520;2022-11-30T15:11:18;6.30;;;4.47;;
76631;SDS011;65526;48.578;-4.520;2022-11-30T15:13:49;6.03;;;3.78;;
76631;SDS011;65526;48.578;-4.520;2022-11-30T15:18:46;4.15;;;3.15;;
76631;SDS011;65526;48.578;-4.520;2022-11-30T15:21:24;6.18;;;3.20;;
76631;SDS011;65526;48.578;-4.520;2022-11-30T15:23:53;6.30;;;4.10;;
76631;SDS011;65526;48.578;-4.520;2022-11-30T15:26:25;7.22;;;3.85;;
76631;SDS011;65526;48.578;-4.520;2022-11-30T15:28:57;5.32;;;3.70;;
76631;SDS011;65526;48.578;-4.520;2022-11-30T15:31:35;9.82;;;4.03;;
76631;SDS011;65526;48.578;-4.520;2022-11-30T15:34:05;4.93;;;3.70;;
76631;SDS011;65526;48.578;-4.520;2022-11-30T15:39:13;5.22;;;4.18;;
76631;SDS011;65526;48.578;-4.520;2022-11-30T15:41:46;5.07;;;4.40;;
76631;SDS011;65526;48.578;-4.520;2022-11-30T15:44:41;6.93;;;4.70;;
76631;SDS011;65526;48.578;-4.520;2022-11-30T15:52:51;7.15;;;4.68;;
76631;SDS011;65526;48.578;-4.520;2022-11-30T16:01:10;8.82;;;5.00;;
76631;SDS011;65526;48.578;-4.520;2022-11-30T16:06:20;8.40;;;4.60;;
76631;SDS011;65526;48.578;-4.520;2022-11-30T16:08:48;5.78;;;4.28;;
76631;SDS011;65526;48.578;-4.520;2022-11-30T16:11:16;7.25;;;5.18;;
76631;SDS011;65526;48.578;-4.520;2022-11-30T16:13:43;7.93;;;4.30;;
76631;SDS011;65526;48.578;-4.520;2022-11-30T16:16:10;6.28;;;5.00;;
76631;SDS011;65526;48.578;-4.520;2022-11-30T16:18:44;7.15;;;5.60;;
76631;SDS011;65526;48.578;-4.520;2022-11-30T16:21:11;8.88;;;6.32;;
76631;SDS011;65526;48.578;-4.520;2022-11-30T16:23:41;9.98;;;5.13;;
76631;SDS011;65526;48.578;-4.520;2022-11-30T16:26:12;7.15;;;4.70;;
76631;SDS011;65526;48.578;-4.520;2022-11-30T16:28:40;9.38;;;5.35;;
76631;SDS011;65526;48.578;-4.520;2022-11-30T16:31:11;6.95;;;5.20;;
76631;SDS011;65526;48.578;-4.520;2022-11-30T16:33:40;7.38;;;6.03;;
76631;SDS011;65526;48.578;-4.520;2022-11-30T16:36:07;9.23;;;6.10;;
76631;SDS011;65526;48.578;-4.520;2022-11-30T16:38:38;9.90;;;6.65;;
76631;SDS011;65526;48.578;-4.520;2022-11-30T16:41:18;10.90;;;6.60;;
76631;SDS011;65526;48.578;-4.520;2022-11-30T16:43:50;10.65;;;6.75;;
76631;SDS011;65526;48.578;-4.520;2022-11-30T16:46:19;10.88;;;6.65;;
76631;SDS011;65526;48.578;-4.520;2022-11-30T16:48:47;10.95;;;6.22;;
76631;SDS011;65526;48.578;-4.520;2022-11-30T16:51:18;10.63;;;6.50;;
76631;SDS011;65526;48.578;-4.520;2022-11-30T16:53:52;9.57;;;6.65;;
76631;SDS011;65526;48.578;-4.520;2022-11-30T16:56:19;8.90;;;6.78;;
76631;SDS011;65526;48.578;-4.520;2022-11-30T16:58:46;9.38;;;6.63;;
76631;SDS011;65526;48.578;-4.520;2022-11-30T17:01:34;9.52;;;6.50;;
76631;SDS011;65526;48.578;-4.520;2022-11-30T17:04:06;14.27;;;6.63;;
76631;SDS011;65526;48.578;-4.520;2022-11-30T17:06:41;9.32;;;6.72;;
76631;SDS011;65526;48.578;-4.520;2022-11-30T17:09:10;9.35;;;6.60;;
76631;SDS011;65526;48.578;-4.520;2022-11-30T17:11:37;10.07;;;6.00;;
76631;SDS011;65526;48.578;-4.520;2022-11-30T17:14:04;10.00;;;6.53;;
76631;SDS011;65526;48.578;-4.520;2022-11-30T17:16:31;12.15;;;7.07;;
76631;SDS011;65526;48.578;-4.520;2022-11-30T17:18:57;10.10;;;7.38;;
76631;SDS011;65526;48.578;-4.520;2022-11-30T17:21:28;10.98;;;7.15;;
76631;SDS011;65526;48.578;-4.520;2022-11-30T17:23:56;12.68;;;7.20;;
76631;SDS011;65526;48.578;-4.520;2022-11-30T17:26:23;11.27;;;7.00;;
76631;SDS011;65526;48.578;-4.520;2022-11-30T17:28:49;10.52;;;6.60;;
76631;SDS011;65526;48.578;-4.520;2022-11-30T17:31:16;9.45;;;7.40;;
76631;SDS011;65526;48.578;-4.520;2022-11-30T17:33:43;13.90;;;7.13;;
76631;SDS011;65526;48.578;-4.520;2022-11-30T17:36:10;13.30;;;8.57;;
76631;SDS011;65526;48.578;-4.520;2022-11-30T17:38:38;12.70;;;8.25;;